sensor_id;sensor_type;location;lat;lon;timestamp;pressure;altitude;pressure_sealevel;temperature;humidity
8894;BME280;4483;48.622;9.230;2024-02-21T00:02:19;98936.13;;;5.12;100.00
8894;BME280;4483;48.622;9.230;2024-02-21T00:04:45;98938.66;;;5.13;100.00
8894;BME280;4483;48.622;9.230;2024-02-21T00:07:12;98926.75;;;5.13;100.00
8894;BME280;4483;48.622;9.230;2024-02-21T00:09:40;98931.84;;;5.14;100.00
8894;BME280;4483;48.622;9.230;2024-02-21T00:12:07;98924.19;;;5.13;100.00
8894;BME280;4483;48.622;9.230;2024-02-21T00:14:34;98931.00;;;5.10;100.00
8894;BME280;4483;48.622;9.230;2024-02-21T00:17:00;98925.88;;;5.07;100.00
8894;BME280;4483;48.622;9.230;2024-02-21T00:19:27;98930.19;;;5.07;100.00
8894;BME280;4483;48.622;9.230;2024-02-21T00:21:53;98928.47;;;5.04;100.00
8894;BME280;4483;48.622;9.230;2024-02-21T00:24:20;98920.81;;;5.04;100.00
8894;BME280;4483;48.622;9.230;2024-02-21T00:26:48;98914.00;;;4.99;100.00
8894;BME280;4483;48.622;9.230;2024-02-21T00:29:15;98919.09;;;5.05;100.00
8894;BME280;4483;48.622;9.230;2024-02-21T00:31:41;98914.00;;;5.05;100.00
8894;BME280;4483;48.622;9.230;2024-02-21T00:34:10;98904.59;;;5.05;100.00
8894;BME280;4483;48.622;9.230;2024-02-21T00:36:37;98911.44;;;5.06;100.00
8894;BME280;4483;48.622;9.230;2024-02-21T00:39:04;98902.06;;;5.07;100.00
8894;BME280;4483;48.622;9.230;2024-02-21T00:41:31;98892.69;;;5.07;100.00
8894;BME280;4483;48.622;9.230;2024-02-21T00:44:00;98898.66;;;5.08;100.00
8894;BME280;4483;48.622;9.230;2024-02-21T00:46:26;98902.91;;;5.07;100.00
8894;BME280;4483;48.622;9.230;2024-02-21T00:48:53;98894.41;;;5.08;100.00
8894;BME280;4483;48.622;9.230;2024-02-21T00:51:19;98888.44;;;5.08;100.00
8894;BME280;4483;48.622;9.230;2024-02-21T00:53:46;98884.19;;;5.08;100.00
8894;BME280;4483;48.622;9.230;2024-02-21T00:56:12;98878.22;;;5.05;100.00
8894;BME280;4483;48.622;9.230;2024-02-21T00:58:39;98879.91;;;5.06;100.00
8894;BME280;4483;48.622;9.230;2024-02-21T01:01:07;98878.22;;;5.05;100.00
8894;BME280;4483;48.622;9.230;2024-02-21T01:03:34;98872.28;;;5.04;100.00
8894;BME280;4483;48.622;9.230;2024-02-21T01:06:00;98882.47;;;5.04;100.00
8894;BME280;4483;48.622;9.230;2024-02-21T01:08:27;98881.63;;;5.04;100.00
8894;BME280;4483;48.622;9.230;2024-02-21T01:10:53;98867.19;;;4.97;100.00
8894;BME280;4483;48.622;9.230;2024-02-21T01:13:20;98874.84;;;5.03;100.00
8894;BME280;4483;48.622;9.230;2024-02-21T01:15:46;98866.34;;;4.99;100.00
8894;BME280;4483;48.622;9.230;2024-02-21T01:18:14;98870.59;;;5.03;100.00
8894;BME280;4483;48.622;9.230;2024-02-21T01:20:41;98856.94;;;4.98;100.00
8894;BME280;4483;48.622;9.230;2024-02-21T01:23:07;98854.41;;;5.03;100.00
8894;BME280;4483;48.622;9.230;2024-02-21T01:25:34;98843.31;;;5.02;100.00
8894;BME280;4483;48.622;9.230;2024-02-21T01:28:01;98840.75;;;5.04;100.00
8894;BME280;4483;48.622;9.230;2024-02-21T01:30:27;98833.09;;;5.05;100.00
8894;BME280;4483;48.622;9.230;2024-02-21T01:32:54;98829.72;;;5.05;100.00
8894;BME280;4483;48.622;9.230;2024-02-21T01:35:22;98829.69;;;5.08;100.00
8894;BME280;4483;48.622;9.230;2024-02-21T01:37:48;98825.44;;;5.07;100.00
8894;BME280;4483;48.622;9.230;2024-02-21T01:40:17;98818.63;;;5.09;100.00
8894;BME280;4483;48.622;9.230;2024-02-21T01:42:43;98807.56;;;5.07;100.00
8894;BME280;4483;48.622;9.230;2024-02-21T01:45:10;98806.72;;;5.06;100.00
8894;BME280;4483;48.622;9.230;2024-02-21T01:47:37;98806.69;;;5.09;100.00
8894;BME280;4483;48.622;9.230;2024-02-21T01:50:04;98796.47;;;5.13;100.00
8894;BME280;4483;48.622;9.230;2024-02-21T01:52:33;98796.47;;;5.14;100.00
8894;BME280;4483;48.622;9.230;2024-02-21T01:55:01;98788.78;;;5.16;100.00
8894;BME280;4483;48.622;9.230;2024-02-21T01:57:28;98777.72;;;5.15;100.00
8894;BME280;4483;48.622;9.230;2024-02-21T01:59:55;98777.72;;;5.20;100.00
8894;BME280;4483;48.622;9.230;2024-02-21T02:02:22;98780.25;;;5.23;100.00
8894;BME280;4483;48.622;9.230;2024-02-21T02:04:49;98773.41;;;5.25;100.00
8894;BME280;4483;48.622;9.230;2024-02-21T02:07:15;98773.41;;;5.28;100.00
8894;BME280;4483;48.622;9.230;2024-02-21T02:09:43;98764.03;;;5.27;100.00
8894;BME280;4483;48.622;9.230;2024-02-21T02:12:10;98763.16;;;5.32;100.00
8894;BME280;4483;48.622;9.230;2024-02-21T02:14:36;98749.53;;;5.33;100.00
8894;BME280;4483;48.622;9.230;2024-02-21T02:17:03;98755.50;;;5.34;100.00
8894;BME280;4483;48.622;9.230;2024-02-21T02:19:30;98752.91;;;5.37;100.00
8894;BME280;4483;48.622;9.230;2024-02-21T02:22:05;98757.19;;;5.36;100.00
8894;BME280;4483;48.622;9.230;2024-02-21T02:24:34;98742.69;;;5.35;100.00
8894;BME280;4483;48.622;9.230;2024-02-21T02:27:01;98743.50;;;5.45;100.00
8894;BME280;4483;48.622;9.230;2024-02-21T02:29:27;98729.03;;;5.44;100.00
8894;BME280;4483;48.622;9.230;2024-02-21T02:31:54;98726.47;;;5.42;100.00
8894;BME280;4483;48.622;9.230;2024-02-21T02:34:20;98719.66;;;5.43;100.00
8894;BME280;4483;48.622;9.230;2024-02-21T02:36:47;98721.34;;;5.45;100.00
8894;BME280;4483;48.622;9.230;2024-02-21T02:39:14;98722.19;;;5.49;100.00
8894;BME280;4483;48.622;9.230;2024-02-21T02:41:42;98711.97;;;5.49;100.00
8894;BME280;4483;48.622;9.230;2024-02-21T02:44:09;98720.44;;;5.54;100.00
8894;BME280;4483;48.622;9.230;2024-02-21T02:46:35;98717.88;;;5.55;100.00
8894;BME280;4483;48.622;9.230;2024-02-21T02:49:02;98711.91;;;5.58;100.00
8894;BME280;4483;48.622;9.230;2024-02-21T02:51:28;98706.78;;;5.58;100.00
8894;BME280;4483;48.622;9.230;2024-02-21T02:53:55;98709.34;;;5.58;100.00
8894;BME280;4483;48.622;9.230;2024-02-21T02:56:22;98704.19;;;5.61;100.00
8894;BME280;4483;48.622;9.230;2024-02-21T02:58:50;98699.09;;;5.61;100.00
8894;BME280;4483;48.622;9.230;2024-02-21T03:01:17;98706.75;;;5.61;100.00
8894;BME280;4483;48.622;9.230;2024-02-21T03:03:43;98693.13;;;5.62;100.00
8894;BME280;4483;48.622;9.230;2024-02-21T03:06:10;98681.19;;;5.64;100.00
8894;BME280;4483;48.622;9.230;2024-02-21T03:08:37;98680.31;;;5.65;100.00
8894;BME280;4483;48.622;9.230;2024-02-21T03:11:05;98668.38;;;5.65;100.00
8894;BME280;4483;48.622;9.230;2024-02-21T03:13:32;98663.22;;;5.68;100.00
8894;BME280;4483;48.622;9.230;2024-02-21T03:15:59;98660.66;;;5.73;100.00
8894;BME280;4483;48.622;9.230;2024-02-21T03:18:26;98657.22;;;5.74;100.00
8894;BME280;4483;48.622;9.230;2024-02-21T03:20:52;98650.41;;;5.71;100.00
8894;BME280;4483;48.622;9.230;2024-02-21T03:23:19;98660.56;;;5.79;100.00
8894;BME280;4483;48.622;9.230;2024-02-21T03:25:46;98655.47;;;5.79;100.00
8894;BME280;4483;48.622;9.230;2024-02-21T03:28:12;98646.06;;;5.81;100.00
8894;BME280;4483;48.622;9.230;2024-02-21T03:30:39;98640.13;;;5.80;100.00
8894;BME280;4483;48.622;9.230;2024-02-21T03:33:07;98640.16;;;5.77;100.00
8894;BME280;4483;48.622;9.230;2024-02-21T03:35:33;98636.72;;;5.77;100.00
8894;BME280;4483;48.622;9.230;2024-02-21T03:38:00;98636.72;;;5.77;100.00
8894;BME280;4483;48.622;9.230;2024-02-21T03:40:27;98640.13;;;5.79;100.00
8894;BME280;4483;48.622;9.230;2024-02-21T03:42:53;98642.69;;;5.79;100.00
8894;BME280;4483;48.622;9.230;2024-02-21T03:45:20;98638.41;;;5.79;100.00
8894;BME280;4483;48.622;9.230;2024-02-21T03:47:46;98634.16;;;5.80;100.00
8894;BME280;4483;48.622;9.230;2024-02-21T03:50:14;98632.47;;;5.80;100.00
8894;BME280;4483;48.622;9.230;2024-02-21T03:52:41;98632.44;;;5.79;100.00
8894;BME280;4483;48.622;9.230;2024-02-21T03:55:08;98629.06;;;5.75;100.00
8894;BME280;4483;48.622;9.230;2024-02-21T03:57:34;98631.63;;;5.75;100.00
8894;BME280;4483;48.622;9.230;2024-02-21T04:00:01;98635.03;;;5.76;100.00
8894;BME280;4483;48.622;9.230;2024-02-21T04:02:28;98639.31;;;5.75;100.00
8894;BME280;4483;48.622;9.230;2024-02-21T04:04:55;98646.16;;;5.75;100.00
8894;BME280;4483;48.622;9.230;2024-02-21T04:07:23;98650.41;;;5.74;100.00
8894;BME280;4483;48.622;9.230;2024-02-21T04:09:49;98653.81;;;5.72;100.00
8894;BME280;4483;48.622;9.230;2024-02-21T04:12:16;98654.69;;;5.71;100.00
8894;BME280;4483;48.622;9.230;2024-02-21T04:14:43;98650.44;;;5.68;100.00
8894;BME280;4483;48.622;9.230;2024-02-21T04:17:09;98645.41;;;5.64;100.00
8894;BME280;4483;48.622;9.230;2024-02-21T04:19:36;98633.47;;;5.63;100.00
8894;BME280;4483;48.622;9.230;2024-02-21T04:22:02;98621.56;;;5.62;100.00
8894;BME280;4483;48.622;9.230;2024-02-21T04:24:31;98612.19;;;5.59;100.00
8894;BME280;4483;48.622;9.230;2024-02-21T04:26:57;98616.44;;;5.62;100.00
8894;BME280;4483;48.622;9.230;2024-02-21T04:29:24;98609.59;;;5.61;100.00
8894;BME280;4483;48.622;9.230;2024-02-21T04:31:50;98595.16;;;5.58;100.00
8894;BME280;4483;48.622;9.230;2024-02-21T04:34:17;98589.22;;;5.56;100.00
8894;BME280;4483;48.622;9.230;2024-02-21T04:36:43;98590.97;;;5.53;100.00
8894;BME280;4483;48.622;9.230;2024-02-21T04:39:11;98580.75;;;5.50;100.00
8894;BME280;4483;48.622;9.230;2024-02-21T04:41:39;98580.75;;;5.50;100.00
8894;BME280;4483;48.622;9.230;2024-02-21T04:44:05;98589.28;;;5.49;100.00
8894;BME280;4483;48.622;9.230;2024-02-21T04:46:32;98587.59;;;5.49;100.00
8894;BME280;4483;48.622;9.230;2024-02-21T04:48:58;98593.56;;;5.47;100.00
8894;BME280;4483;48.622;9.230;2024-02-21T04:51:25;98573.19;;;5.38;100.00
8894;BME280;4483;48.622;9.230;2024-02-21T04:53:51;98577.47;;;5.36;100.00
8894;BME280;4483;48.622;9.230;2024-02-21T04:56:18;98562.22;;;5.27;100.00
8894;BME280;4483;48.622;9.230;2024-02-21T04:58:46;98557.94;;;5.29;100.00
8894;BME280;4483;48.622;9.230;2024-02-21T05:01:13;98563.06;;;5.24;100.00
8894;BME280;4483;48.622;9.230;2024-02-21T05:03:39;98566.44;;;5.32;100.00
8894;BME280;4483;48.622;9.230;2024-02-21T05:06:06;98567.31;;;5.28;100.00
8894;BME280;4483;48.622;9.230;2024-02-21T05:08:33;98575.03;;;5.24;100.00
8894;BME280;4483;48.622;9.230;2024-02-21T05:10:59;98567.41;;;5.18;100.00
8894;BME280;4483;48.622;9.230;2024-02-21T05:13:26;98567.44;;;5.11;100.00
8894;BME280;4483;48.622;9.230;2024-02-21T05:15:54;98577.66;;;5.11;100.00
8894;BME280;4483;48.622;9.230;2024-02-21T05:18:20;98585.34;;;5.08;100.00
8894;BME280;4483;48.622;9.230;2024-02-21T05:20:47;98591.28;;;5.07;100.00
8894;BME280;4483;48.622;9.230;2024-02-21T05:23:14;98589.63;;;5.06;100.00
8894;BME280;4483;48.622;9.230;2024-02-21T05:25:40;98593.88;;;5.06;100.00
8894;BME280;4483;48.622;9.230;2024-02-21T05:28:07;98593.03;;;5.02;100.00
8894;BME280;4483;48.622;9.230;2024-02-21T05:30:33;98582.00;;;4.99;100.00
8894;BME280;4483;48.622;9.230;2024-02-21T05:33:05;98578.63;;;4.95;100.00
8894;BME280;4483;48.622;9.230;2024-02-21T05:35:32;98586.31;;;4.92;100.00
8894;BME280;4483;48.622;9.230;2024-02-21T05:37:59;98567.59;;;4.87;100.00
8894;BME280;4483;48.622;9.230;2024-02-21T05:40:26;98565.94;;;4.83;100.00
8894;BME280;4483;48.622;9.230;2024-02-21T05:42:52;98560.84;;;4.79;100.00
8894;BME280;4483;48.622;9.230;2024-02-21T05:45:19;98557.44;;;4.80;100.00
8894;BME280;4483;48.622;9.230;2024-02-21T05:47:45;98551.50;;;4.81;100.00
8894;BME280;4483;48.622;9.230;2024-02-21T05:50:13;98551.53;;;4.78;100.00
8894;BME280;4483;48.622;9.230;2024-02-21T05:52:40;98555.78;;;4.77;100.00
8894;BME280;4483;48.622;9.230;2024-02-21T05:55:07;98543.88;;;4.73;100.00
8894;BME280;4483;48.622;9.230;2024-02-21T05:57:34;98532.84;;;4.65;100.00
8894;BME280;4483;48.622;9.230;2024-02-21T06:00:03;98555.81;;;4.70;100.00
8894;BME280;4483;48.622;9.230;2024-02-21T06:02:30;98556.66;;;4.67;100.00
8894;BME280;4483;48.622;9.230;2024-02-21T06:04:57;98541.41;;;4.63;100.00
8894;BME280;4483;48.622;9.230;2024-02-21T06:07:25;98543.97;;;4.61;100.00
8894;BME280;4483;48.622;9.230;2024-02-21T06:09:51;98535.47;;;4.56;100.00
8894;BME280;4483;48.622;9.230;2024-02-21T06:12:18;98535.50;;;4.53;100.00
8894;BME280;4483;48.622;9.230;2024-02-21T06:14:45;98540.63;;;4.50;100.00
8894;BME280;4483;48.622;9.230;2024-02-21T06:17:11;98538.91;;;4.49;100.00
8894;BME280;4483;48.622;9.230;2024-02-21T06:19:39;98545.72;;;4.49;100.00
8894;BME280;4483;48.622;9.230;2024-02-21T06:22:06;98544.88;;;4.48;100.00
8894;BME280;4483;48.622;9.230;2024-02-21T06:24:35;98541.50;;;4.46;100.00
8894;BME280;4483;48.622;9.230;2024-02-21T06:27:03;98540.66;;;4.44;100.00
8894;BME280;4483;48.622;9.230;2024-02-21T06:29:31;98538.94;;;4.43;100.00
8894;BME280;4483;48.622;9.230;2024-02-21T06:31:57;98532.13;;;4.45;100.00
8894;BME280;4483;48.622;9.230;2024-02-21T06:34:24;98526.97;;;4.54;100.00
8894;BME280;4483;48.622;9.230;2024-02-21T06:36:51;98526.91;;;4.63;100.00
8894;BME280;4483;48.622;9.230;2024-02-21T06:39:18;98529.31;;;4.86;100.00
8894;BME280;4483;48.622;9.230;2024-02-21T06:41:45;98537.25;;;5.56;100.00
8894;BME280;4483;48.622;9.230;2024-02-21T06:44:13;98544.03;;;6.37;100.00
8894;BME280;4483;48.622;9.230;2024-02-21T06:46:39;98540.41;;;7.09;100.00
8894;BME280;4483;48.622;9.230;2024-02-21T06:49:06;98542.50;;;7.84;100.00
8894;BME280;4483;48.622;9.230;2024-02-21T06:51:32;98536.31;;;8.40;100.00
8894;BME280;4483;48.622;9.230;2024-02-21T06:54:00;98539.03;;;8.72;100.00
8894;BME280;4483;48.622;9.230;2024-02-21T06:56:27;98537.13;;;9.17;100.00
8894;BME280;4483;48.622;9.230;2024-02-21T06:58:55;98520.53;;;9.62;100.00
8894;BME280;4483;48.622;9.230;2024-02-21T07:01:22;98530.44;;;10.09;100.00
8894;BME280;4483;48.622;9.230;2024-02-21T07:03:48;98521.97;;;10.35;100.00
8894;BME280;4483;48.622;9.230;2024-02-21T07:06:15;98521.75;;;10.42;100.00
8894;BME280;4483;48.622;9.230;2024-02-21T07:08:42;98528.16;;;10.58;100.00
8894;BME280;4483;48.622;9.230;2024-02-21T07:11:08;98526.81;;;10.74;100.00
8894;BME280;4483;48.622;9.230;2024-02-21T07:13:35;98529.69;;;10.91;100.00
8894;BME280;4483;48.622;9.230;2024-02-21T07:16:03;98511.41;;;11.00;100.00
8894;BME280;4483;48.622;9.230;2024-02-21T07:18:30;98514.31;;;11.16;98.03
8894;BME280;4483;48.622;9.230;2024-02-21T07:20:56;98508.53;;;11.34;97.31
8894;BME280;4483;48.622;9.230;2024-02-21T07:23:23;98505.28;;;11.54;96.56
8894;BME280;4483;48.622;9.230;2024-02-21T07:25:50;98507.06;;;11.78;95.59
8894;BME280;4483;48.622;9.230;2024-02-21T07:28:17;98505.41;;;12.00;95.76
8894;BME280;4483;48.622;9.230;2024-02-21T07:30:44;98505.34;;;12.26;91.23
8894;BME280;4483;48.622;9.230;2024-02-21T07:33:11;98496.25;;;12.61;90.29
8894;BME280;4483;48.622;9.230;2024-02-21T07:35:38;98492.44;;;12.92;87.67
8894;BME280;4483;48.622;9.230;2024-02-21T07:38:06;98492.78;;;13.27;84.54
8894;BME280;4483;48.622;9.230;2024-02-21T07:40:33;98491.38;;;13.60;86.21
8894;BME280;4483;48.622;9.230;2024-02-21T07:43:00;98493.97;;;13.80;82.51
8894;BME280;4483;48.622;9.230;2024-02-21T07:45:26;98492.72;;;13.88;83.27
8894;BME280;4483;48.622;9.230;2024-02-21T07:47:53;98486.41;;;13.94;81.59
8894;BME280;4483;48.622;9.230;2024-02-21T07:50:21;98484.69;;;13.94;78.56
8894;BME280;4483;48.622;9.230;2024-02-21T07:52:47;98479.81;;;13.87;78.87
8894;BME280;4483;48.622;9.230;2024-02-21T07:55:14;98484.69;;;13.74;75.80
8894;BME280;4483;48.622;9.230;2024-02-21T07:57:41;98475.06;;;13.58;77.29
8894;BME280;4483;48.622;9.230;2024-02-21T08:00:07;98467.44;;;13.55;77.86
8894;BME280;4483;48.622;9.230;2024-02-21T08:02:35;98454.34;;;13.58;77.56
8894;BME280;4483;48.622;9.230;2024-02-21T08:05:02;98461.31;;;13.76;78.39
8894;BME280;4483;48.622;9.230;2024-02-21T08:07:30;98449.97;;;13.98;77.99
8894;BME280;4483;48.622;9.230;2024-02-21T08:09:57;98451.09;;;14.11;77.10
8894;BME280;4483;48.622;9.230;2024-02-21T08:12:23;98440.50;;;14.16;76.30
8894;BME280;4483;48.622;9.230;2024-02-21T08:14:50;98447.44;;;14.15;75.78
8894;BME280;4483;48.622;9.230;2024-02-21T08:17:16;98438.91;;;13.95;73.03
8894;BME280;4483;48.622;9.230;2024-02-21T08:19:43;98440.00;;;13.89;74.56
8894;BME280;4483;48.622;9.230;2024-02-21T08:22:10;98441.84;;;13.67;73.75
8894;BME280;4483;48.622;9.230;2024-02-21T08:24:38;98428.69;;;13.53;74.53
8894;BME280;4483;48.622;9.230;2024-02-21T08:27:04;98437.34;;;13.52;74.31
8894;BME280;4483;48.622;9.230;2024-02-21T08:29:31;98430.59;;;13.48;74.24
8894;BME280;4483;48.622;9.230;2024-02-21T08:31:58;98428.97;;;13.66;74.01
8894;BME280;4483;48.622;9.230;2024-02-21T08:34:24;98417.88;;;13.82;74.54
8894;BME280;4483;48.622;9.230;2024-02-21T08:36:51;98430.00;;;14.00;71.46
8894;BME280;4483;48.622;9.230;2024-02-21T08:39:17;98439.38;;;14.03;70.63
8894;BME280;4483;48.622;9.230;2024-02-21T08:41:45;98431.72;;;13.81;67.02
8894;BME280;4483;48.622;9.230;2024-02-21T08:44:12;98429.03;;;13.44;68.80
8894;BME280;4483;48.622;9.230;2024-02-21T08:46:38;98426.66;;;13.40;70.31
8894;BME280;4483;48.622;9.230;2024-02-21T08:49:05;98415.78;;;13.32;69.53
8894;BME280;4483;48.622;9.230;2024-02-21T08:51:32;98410.59;;;13.32;70.33
8894;BME280;4483;48.622;9.230;2024-02-21T08:53:58;98417.88;;;13.44;68.93
8894;BME280;4483;48.622;9.230;2024-02-21T08:56:26;98423.16;;;13.41;69.51
8894;BME280;4483;48.622;9.230;2024-02-21T08:58:54;98410.28;;;13.39;70.03
8894;BME280;4483;48.622;9.230;2024-02-21T09:01:21;98414.09;;;13.51;69.61
8894;BME280;4483;48.622;9.230;2024-02-21T09:03:47;98408.66;;;13.57;69.56
8894;BME280;4483;48.622;9.230;2024-02-21T09:06:18;98406.16;;;13.74;69.55
8894;BME280;4483;48.622;9.230;2024-02-21T09:08:45;98404.34;;;13.76;69.42
8894;BME280;4483;48.622;9.230;2024-02-21T09:11:11;98395.03;;;13.72;69.00
8894;BME280;4483;48.622;9.230;2024-02-21T09:13:38;98396.84;;;13.70;67.89
8894;BME280;4483;48.622;9.230;2024-02-21T09:16:06;98392.34;;;13.55;68.37
8894;BME280;4483;48.622;9.230;2024-02-21T09:18:34;98386.88;;;13.61;68.93
8894;BME280;4483;48.622;9.230;2024-02-21T09:21:01;98378.66;;;13.71;69.03
8894;BME280;4483;48.622;9.230;2024-02-21T09:23:27;98380.91;;;13.79;68.33
8894;BME280;4483;48.622;9.230;2024-02-21T09:25:54;98375.09;;;13.92;68.73
8894;BME280;4483;48.622;9.230;2024-02-21T09:28:21;98372.31;;;13.97;67.84
8894;BME280;4483;48.622;9.230;2024-02-21T09:30:47;98369.66;;;13.98;67.22
8894;BME280;4483;48.622;9.230;2024-02-21T09:33:15;98369.38;;;13.86;67.88
8894;BME280;4483;48.622;9.230;2024-02-21T09:35:42;98353.59;;;13.90;68.01
8894;BME280;4483;48.622;9.230;2024-02-21T09:38:08;98357.81;;;14.11;67.56
8894;BME280;4483;48.622;9.230;2024-02-21T09:40:35;98351.72;;;14.31;66.14
8894;BME280;4483;48.622;9.230;2024-02-21T09:43:04;98341.25;;;14.51;66.06
8894;BME280;4483;48.622;9.230;2024-02-21T09:45:33;98349.97;;;14.84;66.38
8894;BME280;4483;48.622;9.230;2024-02-21T09:48:24;98346.91;;;15.10;64.83
8894;BME280;4483;48.622;9.230;2024-02-21T09:50:53;98355.44;;;15.30;63.18
8894;BME280;4483;48.622;9.230;2024-02-21T09:53:21;98352.22;;;15.25;61.56
8894;BME280;4483;48.622;9.230;2024-02-21T09:55:50;98347.03;;;15.25;62.26
8894;BME280;4483;48.622;9.230;2024-02-21T09:58:18;98337.13;;;15.33;62.74
8894;BME280;4483;48.622;9.230;2024-02-21T10:00:44;98327.25;;;15.56;61.87
8894;BME280;4483;48.622;9.230;2024-02-21T10:03:11;98323.34;;;15.96;61.53
8894;BME280;4483;48.622;9.230;2024-02-21T10:05:47;98332.78;;;16.28;61.04
8894;BME280;4483;48.622;9.230;2024-02-21T10:08:15;98325.75;;;16.15;58.86
8894;BME280;4483;48.622;9.230;2024-02-21T10:10:42;98318.63;;;16.02;58.34
8894;BME280;4483;48.622;9.230;2024-02-21T10:13:09;98316.22;;;15.84;58.89
8894;BME280;4483;48.622;9.230;2024-02-21T10:15:36;98313.34;;;15.73;58.35
8894;BME280;4483;48.622;9.230;2024-02-21T10:18:04;98319.34;;;15.58;58.48
8894;BME280;4483;48.622;9.230;2024-02-21T10:20:32;98302.22;;;15.38;58.61
8894;BME280;4483;48.622;9.230;2024-02-21T10:23:03;98307.72;;;15.32;58.59
8894;BME280;4483;48.622;9.230;2024-02-21T10:25:33;98294.81;;;15.31;58.94
8894;BME280;4483;48.622;9.230;2024-02-21T10:28:01;98309.91;;;15.40;57.96
8894;BME280;4483;48.622;9.230;2024-02-21T10:30:28;98282.81;;;15.28;57.83
8894;BME280;4483;48.622;9.230;2024-02-21T10:32:55;98289.53;;;15.32;58.87
8894;BME280;4483;48.622;9.230;2024-02-21T10:35:26;98281.97;;;15.60;58.53
8894;BME280;4483;48.622;9.230;2024-02-21T10:37:53;98270.16;;;15.86;58.46
8894;BME280;4483;48.622;9.230;2024-02-21T10:40:26;98263.78;;;15.91;57.37
8894;BME280;4483;48.622;9.230;2024-02-21T10:42:56;98264.22;;;16.15;57.77
8894;BME280;4483;48.622;9.230;2024-02-21T10:45:29;98260.97;;;16.41;56.56
8894;BME280;4483;48.622;9.230;2024-02-21T10:48:00;98258.19;;;16.15;54.13
8894;BME280;4483;48.622;9.230;2024-02-21T10:50:30;98265.31;;;15.95;56.25
8894;BME280;4483;48.622;9.230;2024-02-21T10:53:03;98250.22;;;15.86;55.26
8894;BME280;4483;48.622;9.230;2024-02-21T10:55:38;98252.56;;;15.75;55.47
8894;BME280;4483;48.622;9.230;2024-02-21T10:58:09;98242.47;;;15.71;55.58
8894;BME280;4483;48.622;9.230;2024-02-21T11:00:36;98240.28;;;15.63;56.87
8894;BME280;4483;48.622;9.230;2024-02-21T11:03:04;98229.69;;;15.66;55.82
8894;BME280;4483;48.622;9.230;2024-02-21T11:05:32;98216.72;;;15.66;56.13
8894;BME280;4483;48.622;9.230;2024-02-21T11:07:59;98222.94;;;15.64;54.92
8894;BME280;4483;48.622;9.230;2024-02-21T11:10:26;98213.97;;;15.54;56.03
8894;BME280;4483;48.622;9.230;2024-02-21T11:13:05;98209.78;;;15.67;56.00
8894;BME280;4483;48.622;9.230;2024-02-21T11:15:32;98205.16;;;15.72;55.58
8894;BME280;4483;48.622;9.230;2024-02-21T11:17:59;98203.41;;;15.72;55.16
8894;BME280;4483;48.622;9.230;2024-02-21T11:20:32;98195.84;;;15.68;55.73
8894;BME280;4483;48.622;9.230;2024-02-21T11:22:59;98195.84;;;15.68;56.04
8894;BME280;4483;48.622;9.230;2024-02-21T11:25:26;98188.22;;;15.65;55.50
8894;BME280;4483;48.622;9.230;2024-02-21T11:28:00;98176.75;;;15.53;56.13
8894;BME280;4483;48.622;9.230;2024-02-21T11:30:29;98165.69;;;15.50;56.15
8894;BME280;4483;48.622;9.230;2024-02-21T11:33:03;98169.47;;;15.60;56.66
8894;BME280;4483;48.622;9.230;2024-02-21T11:35:33;98162.88;;;15.54;56.59
8894;BME280;4483;48.622;9.230;2024-02-21T11:38:10;98148.09;;;15.55;56.82
8894;BME280;4483;48.622;9.230;2024-02-21T11:40:41;98144.59;;;15.56;55.97
8894;BME280;4483;48.622;9.230;2024-02-21T11:43:09;98133.03;;;15.46;56.34
8894;BME280;4483;48.622;9.230;2024-02-21T11:45:36;98136.94;;;15.37;56.20
8894;BME280;4483;48.622;9.230;2024-02-21T11:48:05;98131.09;;;15.34;56.81
8894;BME280;4483;48.622;9.230;2024-02-21T11:50:33;98132.50;;;15.24;56.14
8894;BME280;4483;48.622;9.230;2024-02-21T11:53:00;98120.94;;;15.13;56.85
8894;BME280;4483;48.622;9.230;2024-02-21T11:55:27;98122.03;;;15.09;58.03
8894;BME280;4483;48.622;9.230;2024-02-21T11:57:54;98111.16;;;15.19;58.02
8894;BME280;4483;48.622;9.230;2024-02-21T12:00:23;98113.09;;;15.31;57.90
8894;BME280;4483;48.622;9.230;2024-02-21T12:02:50;98104.47;;;15.30;57.77
8894;BME280;4483;48.622;9.230;2024-02-21T12:05:18;98092.06;;;15.20;57.04
8894;BME280;4483;48.622;9.230;2024-02-21T12:07:45;98092.72;;;15.07;57.05
8894;BME280;4483;48.622;9.230;2024-02-21T12:10:13;98094.06;;;14.99;57.03
8894;BME280;4483;48.622;9.230;2024-02-21T12:12:40;98090.81;;;14.95;57.26
8894;BME280;4483;48.622;9.230;2024-02-21T12:15:07;98084.78;;;14.95;56.53
8894;BME280;4483;48.622;9.230;2024-02-21T12:17:36;98078.25;;;14.88;56.00
8894;BME280;4483;48.622;9.230;2024-02-21T12:20:04;98074.31;;;14.96;56.88
8894;BME280;4483;48.622;9.230;2024-02-21T12:22:35;98073.41;;;15.13;56.52
8894;BME280;4483;48.622;9.230;2024-02-21T12:25:03;98066.38;;;15.31;56.09
8894;BME280;4483;48.622;9.230;2024-02-21T12:27:33;98063.84;;;15.45;56.44
8894;BME280;4483;48.622;9.230;2024-02-21T12:29:59;98060.91;;;15.51;55.44
8894;BME280;4483;48.622;9.230;2024-02-21T12:32:26;98054.59;;;15.55;55.14
8894;BME280;4483;48.622;9.230;2024-02-21T12:34:54;98044.16;;;15.56;55.20
8894;BME280;4483;48.622;9.230;2024-02-21T12:37:22;98043.53;;;15.67;54.58
8894;BME280;4483;48.622;9.230;2024-02-21T12:39:48;98044.63;;;15.63;54.39
8894;BME280;4483;48.622;9.230;2024-02-21T12:42:15;98032.28;;;15.66;55.10
8894;BME280;4483;48.622;9.230;2024-02-21T12:44:42;98031.84;;;15.74;53.42
8894;BME280;4483;48.622;9.230;2024-02-21T12:47:09;98024.81;;;15.76;53.68
8894;BME280;4483;48.622;9.230;2024-02-21T12:49:36;98016.19;;;15.75;52.90
8894;BME280;4483;48.622;9.230;2024-02-21T12:52:04;98010.22;;;15.73;52.46
8894;BME280;4483;48.622;9.230;2024-02-21T12:54:31;98009.97;;;15.78;52.90
8894;BME280;4483;48.622;9.230;2024-02-21T12:56:57;97994.41;;;15.92;52.78
8894;BME280;4483;48.622;9.230;2024-02-21T12:59:28;97991.25;;;16.01;52.49
8894;BME280;4483;48.622;9.230;2024-02-21T13:01:54;97982.34;;;16.05;52.58
8894;BME280;4483;48.622;9.230;2024-02-21T13:04:21;97983.00;;;16.08;51.54
8894;BME280;4483;48.622;9.230;2024-02-21T13:06:48;97971.09;;;16.04;52.27
8894;BME280;4483;48.622;9.230;2024-02-21T13:09:16;97972.59;;;16.08;51.89
8894;BME280;4483;48.622;9.230;2024-02-21T13:11:43;97973.81;;;16.03;51.45
8894;BME280;4483;48.622;9.230;2024-02-21T13:14:11;97954.03;;;15.86;50.67
8894;BME280;4483;48.622;9.230;2024-02-21T13:16:38;97945.69;;;15.67;49.53
8894;BME280;4483;48.622;9.230;2024-02-21T13:19:05;97947.41;;;15.53;51.05
8894;BME280;4483;48.622;9.230;2024-02-21T13:21:32;97940.53;;;15.52;50.74
8894;BME280;4483;48.622;9.230;2024-02-21T13:23:59;97941.53;;;15.49;51.44